sensor_id;sensor_type;location;lat;lon;timestamp;pressure;altitude;pressure_sealevel;temperature;humidity
66887;BME280;67239;51.680;5.976;2023-03-21T00:01:50;101559.50;;;9.92;84.32
66887;BME280;67239;51.680;5.976;2023-03-21T00:04:24;101561.28;;;9.92;84.55
66887;BME280;67239;51.680;5.976;2023-03-21T00:06:55;101555.16;;;9.90;84.53
66887;BME280;67239;51.680;5.976;2023-03-21T00:09:22;101546.41;;;9.88;84.90
66887;BME280;67239;51.680;5.976;2023-03-21T00:11:49;101552.56;;;9.88;84.99
66887;BME280;67239;51.680;5.976;2023-03-21T00:14:16;101547.28;;;9.88;85.09
66887;BME280;67239;51.680;5.976;2023-03-21T00:16:47;101548.19;;;9.87;85.12
66887;BME280;67239;51.680;5.976;2023-03-21T00:19:19;101546.44;;;9.86;85.31
66887;BME280;67239;51.680;5.976;2023-03-21T00:21:46;101541.22;;;9.85;85.24
66887;BME280;67239;51.680;5.976;2023-03-21T00:24:35;101532.41;;;9.84;85.32
66887;BME280;67239;51.680;5.976;2023-03-21T00:27:03;101535.94;;;9.83;85.32
66887;BME280;67239;51.680;5.976;2023-03-21T00:29:54;101530.72;;;9.82;85.39
66887;BME280;67239;51.680;5.976;2023-03-21T00:32:21;101530.69;;;9.83;85.64
66887;BME280;67239;51.680;5.976;2023-03-21T00:34:48;101525.47;;;9.78;85.63
66887;BME280;67239;51.680;5.976;2023-03-21T00:37:35;101526.44;;;9.74;86.00
66887;BME280;67239;51.680;5.976;2023-03-21T00:40:03;101528.22;;;9.72;86.01
66887;BME280;67239;51.680;5.976;2023-03-21T00:42:51;101519.53;;;9.67;86.07
66887;BME280;67239;51.680;5.976;2023-03-21T00:45:18;101523.06;;;9.66;86.23
66887;BME280;67239;51.680;5.976;2023-03-21T00:47:47;101514.31;;;9.62;86.46
66887;BME280;67239;51.680;5.976;2023-03-21T00:50:15;101517.88;;;9.60;86.41
66887;BME280;67239;51.680;5.976;2023-03-21T00:52:42;101522.28;;;9.59;86.71
66887;BME280;67239;51.680;5.976;2023-03-21T00:55:13;101519.66;;;9.58;86.65
66887;BME280;67239;51.680;5.976;2023-03-21T00:57:43;101514.41;;;9.58;86.76
66887;BME280;67239;51.680;5.976;2023-03-21T01:00:17;101514.41;;;9.58;86.87
66887;BME280;67239;51.680;5.976;2023-03-21T01:02:45;101511.75;;;9.58;87.05
66887;BME280;67239;51.680;5.976;2023-03-21T01:05:38;101513.53;;;9.57;87.05
66887;BME280;67239;51.680;5.976;2023-03-21T01:08:27;101508.31;;;9.56;87.06
66887;BME280;67239;51.680;5.976;2023-03-21T01:11:12;101497.81;;;9.53;87.17
66887;BME280;67239;51.680;5.976;2023-03-21T01:13:44;101498.69;;;9.55;87.60
66887;BME280;67239;51.680;5.976;2023-03-21T01:16:23;101496.94;;;9.54;87.75
66887;BME280;67239;51.680;5.976;2023-03-21T01:18:51;101496.03;;;9.53;87.92
66887;BME280;67239;51.680;5.976;2023-03-21T01:21:19;101496.94;;;9.52;87.84
66887;BME280;67239;51.680;5.976;2023-03-21T01:23:46;101488.19;;;9.52;88.03
66887;BME280;67239;51.680;5.976;2023-03-21T01:26:14;101490.81;;;9.52;88.01
66887;BME280;67239;51.680;5.976;2023-03-21T01:28:43;101485.56;;;9.52;88.05
66887;BME280;67239;51.680;5.976;2023-03-21T01:31:14;101480.25;;;9.55;88.34
66887;BME280;67239;51.680;5.976;2023-03-21T01:33:43;101480.25;;;9.53;88.22
66887;BME280;67239;51.680;5.976;2023-03-21T01:36:17;101481.13;;;9.54;88.00
66887;BME280;67239;51.680;5.976;2023-03-21T01:38:52;101474.09;;;9.54;88.14
66887;BME280;67239;51.680;5.976;2023-03-21T01:41:37;101470.53;;;9.57;88.13
66887;BME280;67239;51.680;5.976;2023-03-21T01:44:25;101473.16;;;9.58;88.35
66887;BME280;67239;51.680;5.976;2023-03-21T01:46:53;101473.16;;;9.58;88.22
66887;BME280;67239;51.680;5.976;2023-03-21T01:49:48;101476.66;;;9.59;88.41
66887;BME280;67239;51.680;5.976;2023-03-21T01:52:23;101467.91;;;9.58;88.12
66887;BME280;67239;51.680;5.976;2023-03-21T01:55:11;101467.91;;;9.58;88.49
66887;BME280;67239;51.680;5.976;2023-03-21T01:57:52;101467.88;;;9.60;88.30
66887;BME280;67239;51.680;5.976;2023-03-21T02:01:08;101460.84;;;9.59;88.31
66887;BME280;67239;51.680;5.976;2023-03-21T02:03:43;101452.91;;;9.62;88.39
66887;BME280;67239;51.680;5.976;2023-03-21T02:07:03;101449.38;;;9.64;87.98
66887;BME280;67239;51.680;5.976;2023-03-21T02:09:46;101437.97;;;9.64;88.28
66887;BME280;67239;51.680;5.976;2023-03-21T02:12:19;101433.56;;;9.64;88.40
66887;BME280;67239;51.680;5.976;2023-03-21T02:14:48;101430.03;;;9.66;88.24
66887;BME280;67239;51.680;5.976;2023-03-21T02:17:56;101426.56;;;9.65;88.30
66887;BME280;67239;51.680;5.976;2023-03-21T02:21:29;101426.50;;;9.67;88.04
66887;BME280;67239;51.680;5.976;2023-03-21T02:24:44;101422.09;;;9.67;88.17
66887;BME280;67239;51.680;5.976;2023-03-21T02:27:35;101416.88;;;9.66;88.12
66887;BME280;67239;51.680;5.976;2023-03-21T02:43:06;101412.59;;;9.60;88.23
66887;BME280;67239;51.680;5.976;2023-03-21T02:46:00;101412.63;;;9.58;88.32
66887;BME280;67239;51.680;5.976;2023-03-21T02:48:50;101402.13;;;9.55;88.36
66887;BME280;67239;51.680;5.976;2023-03-21T02:51:28;101408.28;;;9.56;88.07
66887;BME280;67239;51.680;5.976;2023-03-21T02:54:02;101400.44;;;9.53;88.32
66887;BME280;67239;51.680;5.976;2023-03-21T02:56:54;101398.72;;;9.50;88.16
66887;BME280;67239;51.680;5.976;2023-03-21T02:59:25;101393.47;;;9.50;88.32
66887;BME280;67239;51.680;5.976;2023-03-21T03:01:57;101400.47;;;9.50;88.44
66887;BME280;67239;51.680;5.976;2023-03-21T03:04:27;101391.72;;;9.49;88.37
66887;BME280;67239;51.680;5.976;2023-03-21T03:09:38;101390.84;;;9.48;88.63
66887;BME280;67239;51.680;5.976;2023-03-21T03:27:25;101390.91;;;9.44;88.77
66887;BME280;67239;51.680;5.976;2023-03-21T03:30:03;101389.19;;;9.43;88.65
66887;BME280;67239;51.680;5.976;2023-03-21T03:32:41;101384.75;;;9.45;88.52
66887;BME280;67239;51.680;5.976;2023-03-21T03:35:16;101388.28;;;9.45;88.47
66887;BME280;67239;51.680;5.976;2023-03-21T03:37:49;101379.53;;;9.43;88.63
66887;BME280;67239;51.680;5.976;2023-03-21T03:40:43;101378.66;;;9.43;88.68
66887;BME280;67239;51.680;5.976;2023-03-21T03:43:37;101375.25;;;9.38;88.72
66887;BME280;67239;51.680;5.976;2023-03-21T03:46:16;101372.63;;;9.36;88.71
66887;BME280;67239;51.680;5.976;2023-03-21T03:48:57;101377.88;;;9.36;88.78
66887;BME280;67239;51.680;5.976;2023-03-21T03:51:57;101377.03;;;9.36;88.95
66887;BME280;67239;51.680;5.976;2023-03-21T03:54:39;101370.91;;;9.33;88.75
66887;BME280;67239;51.680;5.976;2023-03-21T03:57:10;101363.91;;;9.34;88.98
66887;BME280;67239;51.680;5.976;2023-03-21T03:59:41;101365.69;;;9.32;89.02
66887;BME280;67239;51.680;5.976;2023-03-21T04:02:22;101371.81;;;9.32;88.80
66887;BME280;67239;51.680;5.976;2023-03-21T04:04:52;101366.53;;;9.32;88.94
66887;BME280;67239;51.680;5.976;2023-03-21T04:07:20;101365.69;;;9.32;88.92
66887;BME280;67239;51.680;5.976;2023-03-21T04:09:50;101365.69;;;9.32;88.87
66887;BME280;67239;51.680;5.976;2023-03-21T04:12:19;101372.69;;;9.33;88.85
66887;BME280;67239;51.680;5.976;2023-03-21T04:15:22;101364.81;;;9.31;88.93
66887;BME280;67239;51.680;5.976;2023-03-21T04:18:14;101363.94;;;9.31;88.77
66887;BME280;67239;51.680;5.976;2023-03-21T04:21:01;101365.72;;;9.30;88.95
66887;BME280;67239;51.680;5.976;2023-03-21T04:23:49;101371.88;;;9.28;89.15
66887;BME280;67239;51.680;5.976;2023-03-21T04:26:37;101364.00;;;9.28;89.05
66887;BME280;67239;51.680;5.976;2023-03-21T04:29:47;101355.28;;;9.24;89.18
66887;BME280;67239;51.680;5.976;2023-03-21T04:32:53;101351.06;;;9.15;89.37
66887;BME280;67239;51.680;5.976;2023-03-21T04:35:43;101350.22;;;9.12;89.75
66887;BME280;67239;51.680;5.976;2023-03-21T04:38:32;101350.28;;;9.09;90.04
66887;BME280;67239;51.680;5.976;2023-03-21T04:41:21;101349.44;;;9.07;90.36
66887;BME280;67239;51.680;5.976;2023-03-21T04:44:09;101346.84;;;9.04;90.45
66887;BME280;67239;51.680;5.976;2023-03-21T04:46:57;101347.81;;;8.99;90.90
66887;BME280;67239;51.680;5.976;2023-03-21T04:49:43;101342.53;;;8.98;91.26
66887;BME280;67239;51.680;5.976;2023-03-21T04:52:16;101335.59;;;8.95;91.59
66887;BME280;67239;51.680;5.976;2023-03-21T04:54:53;101336.47;;;8.94;91.59
66887;BME280;67239;51.680;5.976;2023-03-21T04:57:41;101333.84;;;8.94;91.66
66887;BME280;67239;51.680;5.976;2023-03-21T05:00:28;101333.84;;;8.94;91.78
66887;BME280;67239;51.680;5.976;2023-03-21T05:03:14;101326.00;;;8.93;92.11
66887;BME280;67239;51.680;5.976;2023-03-21T05:06:07;101324.25;;;8.92;92.35
66887;BME280;67239;51.680;5.976;2023-03-21T05:08:55;101330.34;;;8.92;92.48
66887;BME280;67239;51.680;5.976;2023-03-21T05:11:47;101326.00;;;8.91;92.45
66887;BME280;67239;51.680;5.976;2023-03-21T05:14:36;101325.13;;;8.91;92.58
66887;BME280;67239;51.680;5.976;2023-03-21T05:17:24;101334.75;;;8.92;92.58
66887;BME280;67239;51.680;5.976;2023-03-21T05:20:15;101329.50;;;8.92;92.90
66887;BME280;67239;51.680;5.976;2023-03-21T05:23:03;101327.72;;;8.92;92.84
66887;BME280;67239;51.680;5.976;2023-03-21T05:25:49;101326.00;;;8.91;93.07
66887;BME280;67239;51.680;5.976;2023-03-21T05:28:48;101327.72;;;8.92;92.73
66887;BME280;67239;51.680;5.976;2023-03-21T05:31:35;101331.19;;;8.96;92.66
66887;BME280;67239;51.680;5.976;2023-03-21T05:34:28;101326.81;;;8.96;92.70
66887;BME280;67239;51.680;5.976;2023-03-21T05:37:15;101328.53;;;8.96;92.79
66887;BME280;67239;51.680;5.976;2023-03-21T05:40:06;101326.78;;;8.98;92.83
66887;BME280;67239;51.680;5.976;2023-03-21T05:42:57;101320.63;;;8.99;92.83
66887;BME280;67239;51.680;5.976;2023-03-21T05:45:44;101320.59;;;9.00;92.62
66887;BME280;67239;51.680;5.976;2023-03-21T05:48:36;101312.69;;;9.00;92.65
66887;BME280;67239;51.680;5.976;2023-03-21T05:51:32;101316.97;;;9.06;92.62
66887;BME280;67239;51.680;5.976;2023-03-21T05:54:19;101305.50;;;9.13;93.11
66887;BME280;67239;51.680;5.976;2023-03-21T05:57:08;101300.66;;;9.39;94.46
66887;BME280;67239;51.680;5.976;2023-03-21T06:00:17;101308.97;;;9.64;93.53
66887;BME280;67239;51.680;5.976;2023-03-21T06:03:26;101301.84;;;9.71;91.93
66887;BME280;67239;51.680;5.976;2023-03-21T06:05:59;101303.50;;;9.75;91.39
66887;BME280;67239;51.680;5.976;2023-03-21T06:08:33;101306.94;;;9.78;91.03
66887;BME280;67239;51.680;5.976;2023-03-21T06:11:00;101306.03;;;9.81;90.78
66887;BME280;67239;51.680;5.976;2023-03-21T06:13:29;101306.03;;;9.81;90.21
66887;BME280;67239;51.680;5.976;2023-03-21T06:15:58;101310.38;;;9.82;90.36
66887;BME280;67239;51.680;5.976;2023-03-21T06:18:26;101303.41;;;9.79;89.99
66887;BME280;67239;51.680;5.976;2023-03-21T06:21:14;101309.66;;;9.74;89.90
66887;BME280;67239;51.680;5.976;2023-03-21T06:23:42;101302.78;;;9.67;89.97
66887;BME280;67239;51.680;5.976;2023-03-21T06:26:10;101308.94;;;9.66;90.21
66887;BME280;67239;51.680;5.976;2023-03-21T06:28:37;101308.09;;;9.63;90.11
66887;BME280;67239;51.680;5.976;2023-03-21T06:31:05;101310.72;;;9.63;90.15
66887;BME280;67239;51.680;5.976;2023-03-21T06:33:33;101304.59;;;9.63;90.28
66887;BME280;67239;51.680;5.976;2023-03-21T06:36:00;101310.75;;;9.62;90.43
66887;BME280;67239;51.680;5.976;2023-03-21T06:38:28;101308.13;;;9.62;90.17
66887;BME280;67239;51.680;5.976;2023-03-21T06:40:55;101301.13;;;9.61;90.34
66887;BME280;67239;51.680;5.976;2023-03-21T06:43:24;101302.88;;;9.62;90.47
66887;BME280;67239;51.680;5.976;2023-03-21T06:45:51;101307.25;;;9.61;90.33
66887;BME280;67239;51.680;5.976;2023-03-21T06:48:19;101312.50;;;9.63;90.40
66887;BME280;67239;51.680;5.976;2023-03-21T06:50:51;101308.09;;;9.63;90.27
66887;BME280;67239;51.680;5.976;2023-03-21T06:53:22;101308.94;;;9.66;90.16
66887;BME280;67239;51.680;5.976;2023-03-21T06:56:13;101310.63;;;9.68;90.24
66887;BME280;67239;51.680;5.976;2023-03-21T06:58:42;101308.81;;;9.72;90.11
66887;BME280;67239;51.680;5.976;2023-03-21T07:01:17;101309.66;;;9.74;90.08
66887;BME280;67239;51.680;5.976;2023-03-21T07:03:56;101309.59;;;9.77;90.21
66887;BME280;67239;51.680;5.976;2023-03-21T07:06:26;101306.91;;;9.80;90.09
66887;BME280;67239;51.680;5.976;2023-03-21T07:08:54;101306.84;;;9.83;89.96
66887;BME280;67239;51.680;5.976;2023-03-21T07:11:23;101306.75;;;9.88;89.67
66887;BME280;67239;51.680;5.976;2023-03-21T07:13:51;101301.38;;;9.92;89.77
66887;BME280;67239;51.680;5.976;2023-03-21T07:16:19;101301.34;;;9.95;89.65
66887;BME280;67239;51.680;5.976;2023-03-21T07:18:47;101308.25;;;10.01;89.58
66887;BME280;67239;51.680;5.976;2023-03-21T07:21:14;101301.13;;;10.06;89.44
66887;BME280;67239;51.680;5.976;2023-03-21T07:23:43;101308.84;;;10.14;89.21
66887;BME280;67239;51.680;5.976;2023-03-21T07:26:10;101308.69;;;10.22;89.31
66887;BME280;67239;51.680;5.976;2023-03-21T07:28:38;101315.56;;;10.31;88.89
66887;BME280;67239;51.680;5.976;2023-03-21T07:31:06;101313.69;;;10.37;88.92
66887;BME280;67239;51.680;5.976;2023-03-21T07:33:34;101315.28;;;10.45;89.02
66887;BME280;67239;51.680;5.976;2023-03-21T07:36:01;101310.75;;;10.51;88.61
66887;BME280;67239;51.680;5.976;2023-03-21T07:38:29;101313.16;;;10.61;88.63
66887;BME280;67239;51.680;5.976;2023-03-21T07:40:58;101318.34;;;10.65;88.30
66887;BME280;67239;51.680;5.976;2023-03-21T07:43:29;101329.66;;;10.69;88.20
66887;BME280;67239;51.680;5.976;2023-03-21T07:45:58;101321.75;;;10.69;87.97
66887;BME280;67239;51.680;5.976;2023-03-21T07:48:26;101327.03;;;10.69;87.70
66887;BME280;67239;51.680;5.976;2023-03-21T07:50:54;101324.41;;;10.69;87.69
66887;BME280;67239;51.680;5.976;2023-03-21T07:53:22;101326.97;;;10.70;87.61
66887;BME280;67239;51.680;5.976;2023-03-21T07:55:50;101332.19;;;10.74;87.62
66887;BME280;67239;51.680;5.976;2023-03-21T07:58:18;101330.41;;;10.76;87.64
66887;BME280;67239;51.680;5.976;2023-03-21T08:00:45;101332.03;;;10.81;87.75
66887;BME280;67239;51.680;5.976;2023-03-21T08:03:12;101328.44;;;10.84;87.63
66887;BME280;67239;51.680;5.976;2023-03-21T08:05:39;101336.28;;;10.87;87.43
66887;BME280;67239;51.680;5.976;2023-03-21T08:08:07;101335.41;;;10.88;87.38
66887;BME280;67239;51.680;5.976;2023-03-21T08:10:35;101331.81;;;10.89;87.23
66887;BME280;67239;51.680;5.976;2023-03-21T08:13:03;101339.72;;;10.91;87.40
66887;BME280;67239;51.680;5.976;2023-03-21T08:15:30;101337.09;;;10.89;87.05
66887;BME280;67239;51.680;5.976;2023-03-21T08:17:58;101337.09;;;10.89;86.95
66887;BME280;67239;51.680;5.976;2023-03-21T08:20:26;101333.59;;;10.88;86.96
66887;BME280;67239;51.680;5.976;2023-03-21T08:22:53;101338.03;;;10.88;87.03
66887;BME280;67239;51.680;5.976;2023-03-21T08:25:21;101332.66;;;10.91;87.24
66887;BME280;67239;51.680;5.976;2023-03-21T08:27:49;101320.31;;;10.93;87.29
66887;BME280;67239;51.680;5.976;2023-03-21T08:30:20;101318.47;;;10.97;87.50
66887;BME280;67239;51.680;5.976;2023-03-21T08:32:49;101316.59;;;11.00;87.49
66887;BME280;67239;51.680;5.976;2023-03-21T08:35:17;101322.66;;;11.06;87.68
66887;BME280;67239;51.680;5.976;2023-03-21T08:37:46;101319.00;;;11.10;87.51
66887;BME280;67239;51.680;5.976;2023-03-21T08:40:16;101304.84;;;11.14;87.69
66887;BME280;67239;51.680;5.976;2023-03-21T08:42:44;101301.25;;;11.16;87.75
66887;BME280;67239;51.680;5.976;2023-03-21T08:45:15;101299.38;;;11.22;87.66
66887;BME280;67239;51.680;5.976;2023-03-21T08:47:43;101294.94;;;11.24;87.73
66887;BME280;67239;51.680;5.976;2023-03-21T08:50:15;101298.38;;;11.27;87.48
66887;BME280;67239;51.680;5.976;2023-03-21T08:52:47;101296.47;;;11.32;87.52
66887;BME280;67239;51.680;5.976;2023-03-21T08:55:15;101297.94;;;11.43;87.58
66887;BME280;67239;51.680;5.976;2023-03-21T08:57:44;101289.88;;;11.49;87.48
66887;BME280;67239;51.680;5.976;2023-03-21T09:00:14;101287.84;;;11.59;87.16
66887;BME280;67239;51.680;5.976;2023-03-21T09:02:45;101290.28;;;11.67;87.11
66887;BME280;67239;51.680;5.976;2023-03-21T09:05:14;101293.56;;;11.75;86.78
66887;BME280;67239;51.680;5.976;2023-03-21T09:07:43;101280.31;;;11.76;86.33
66887;BME280;67239;51.680;5.976;2023-03-21T09:10:16;101283.00;;;11.75;86.20
66887;BME280;67239;51.680;5.976;2023-03-21T09:12:50;101287.47;;;11.73;86.20
66887;BME280;67239;51.680;5.976;2023-03-21T09:15:18;101284.09;;;11.68;85.79
66887;BME280;67239;51.680;5.976;2023-03-21T09:17:47;101286.94;;;11.60;85.87
66887;BME280;67239;51.680;5.976;2023-03-21T09:20:21;101287.13;;;11.54;85.95
66887;BME280;67239;51.680;5.976;2023-03-21T09:22:57;101284.69;;;11.46;85.63
66887;BME280;67239;51.680;5.976;2023-03-21T09:25:25;101283.91;;;11.42;86.00
66887;BME280;67239;51.680;5.976;2023-03-21T09:27:55;101275.84;;;11.47;86.12
66887;BME280;67239;51.680;5.976;2023-03-21T09:30:23;101276.56;;;11.52;86.45
66887;BME280;67239;51.680;5.976;2023-03-21T09:32:52;101281.72;;;11.58;86.19
66887;BME280;67239;51.680;5.976;2023-03-21T09:35:21;101274.50;;;11.63;86.28
66887;BME280;67239;51.680;5.976;2023-03-21T09:37:50;101275.28;;;11.67;86.17
66887;BME280;67239;51.680;5.976;2023-03-21T09:40:38;101265.59;;;11.68;86.07
66887;BME280;67239;51.680;5.976;2023-03-21T09:43:35;101264.91;;;11.61;85.94
66887;BME280;67239;51.680;5.976;2023-03-21T09:46:13;101252.66;;;11.58;86.22
66887;BME280;67239;51.680;5.976;2023-03-21T09:48:49;101261.50;;;11.56;86.21
66887;BME280;67239;51.680;5.976;2023-03-21T09:51:36;101252.78;;;11.54;86.55
66887;BME280;67239;51.680;5.976;2023-03-21T09:54:19;101244.81;;;11.55;86.79
66887;BME280;67239;51.680;5.976;2023-03-21T09:56:54;101246.38;;;11.62;86.68
66887;BME280;67239;51.680;5.976;2023-03-21T09:59:31;101244.44;;;11.69;86.87
66887;BME280;67239;51.680;5.976;2023-03-21T10:05:17;101235.81;;;11.92;86.69
66887;BME280;67239;51.680;5.976;2023-03-21T10:07:52;101234.59;;;12.06;85.98
66887;BME280;67239;51.680;5.976;2023-03-21T10:10:54;101235.00;;;12.22;85.58
66887;BME280;67239;51.680;5.976;2023-03-21T10:13:34;101225.84;;;12.32;85.19
66887;BME280;67239;51.680;5.976;2023-03-21T10:16:14;101218.59;;;12.39;84.89
66887;BME280;67239;51.680;5.976;2023-03-21T10:18:43;101223.75;;;12.43;84.20
66887;BME280;67239;51.680;5.976;2023-03-21T10:21:19;101219.28;;;12.46;83.52
66887;BME280;67239;51.680;5.976;2023-03-21T10:24:14;101212.03;;;12.51;83.79
66887;BME280;67239;51.680;5.976;2023-03-21T10:26:45;101219.88;;;12.54;83.41
66887;BME280;67239;51.680;5.976;2023-03-21T10:29:14;101210.97;;;12.56;82.64
66887;BME280;67239;51.680;5.976;2023-03-21T10:31:45;101200.31;;;12.60;82.52
66887;BME280;67239;51.680;5.976;2023-03-21T10:34:21;101199.09;;;12.70;82.06
66887;BME280;67239;51.680;5.976;2023-03-21T10:36:58;101196.28;;;12.74;82.02
66887;BME280;67239;51.680;5.976;2023-03-21T10:39:41;101196.97;;;12.80;81.87
66887;BME280;67239;51.680;5.976;2023-03-21T10:42:26;101196.78;;;12.86;81.28
66887;BME280;67239;51.680;5.976;2023-03-21T10:44:56;101194.09;;;12.87;81.01
66887;BME280;67239;51.680;5.976;2023-03-21T10:47:25;101197.47;;;12.91;81.48
66887;BME280;67239;51.680;5.976;2023-03-21T10:50:07;101189.28;;;12.99;80.13
66887;BME280;67239;51.680;5.976;2023-03-21T10:52:47;101174.25;;;12.99;80.08
66887;BME280;67239;51.680;5.976;2023-03-21T10:55:32;101185.59;;;13.03;80.08
66887;BME280;67239;51.680;5.976;2023-03-21T10:58:05;101185.56;;;13.04;80.26
66887;BME280;67239;51.680;5.976;2023-03-21T11:00:39;101180.09;;;13.09;79.94
66887;BME280;67239;51.680;5.976;2023-03-21T11:03:37;101179.13;;;13.12;79.51
66887;BME280;67239;51.680;5.976;2023-03-21T11:06:30;101177.28;;;13.14;79.29
66887;BME280;67239;51.680;5.976;2023-03-21T11:09:08;101183.25;;;13.20;79.37
66887;BME280;67239;51.680;5.976;2023-03-21T11:12:00;101174.16;;;13.28;78.97
66887;BME280;67239;51.680;5.976;2023-03-21T11:14:38;101183.59;;;13.35;78.91
66887;BME280;67239;51.680;5.976;2023-03-21T11:19:59;101197.56;;;13.39;77.14
66887;BME280;67239;51.680;5.976;2023-03-21T11:22:38;101203.63;;;13.44;77.06
66887;BME280;67239;51.680;5.976;2023-03-21T11:25:17;101185.38;;;13.60;77.05
66887;BME280;67239;51.680;5.976;2023-03-21T11:28:13;101195.03;;;13.85;76.37
66887;BME280;67239;51.680;5.976;2023-03-21T11:30:54;101185.78;;;13.95;74.91
66887;BME280;67239;51.680;5.976;2023-03-21T11:33:31;101192.78;;;13.97;75.46
66887;BME280;67239;51.680;5.976;2023-03-21T11:38:48;101179.34;;;14.02;74.72
66887;BME280;67239;51.680;5.976;2023-03-21T11:41:33;101169.41;;;14.07;74.61
66887;BME280;67239;51.680;5.976;2023-03-21T11:44:01;101171.69;;;14.17;75.05
66887;BME280;67239;51.680;5.976;2023-03-21T11:46:30;101171.91;;;14.34;73.90
66887;BME280;67239;51.680;5.976;2023-03-21T11:49:08;101170.81;;;14.38;73.37
66887;BME280;67239;51.680;5.976;2023-03-21T11:57:06;101158.22;;;14.66;72.16
66887;BME280;67239;51.680;5.976;2023-03-21T11:59:47;101165.91;;;14.72;71.74
66887;BME280;67239;51.680;5.976;2023-03-21T12:03:06;101163.22;;;14.73;71.43
66887;BME280;67239;51.680;5.976;2023-03-21T12:06:01;101154.25;;;14.76;71.68
66887;BME280;67239;51.680;5.976;2023-03-21T12:08:39;101151.13;;;14.87;71.35
66887;BME280;67239;51.680;5.976;2023-03-21T12:14:21;101131.56;;;15.10;70.28
66887;BME280;67239;51.680;5.976;2023-03-21T12:23:44;101122.69;;;15.30;68.15
66887;BME280;67239;51.680;5.976;2023-03-21T12:26:30;101117.38;;;15.30;68.26
66887;BME280;67239;51.680;5.976;2023-03-21T12:32:09;101115.56;;;15.50;67.54
66887;BME280;67239;51.680;5.976;2023-03-21T12:38:07;101106.59;;;15.72;67.35
66887;BME280;67239;51.680;5.976;2023-03-21T12:43:46;101089.19;;;15.83;65.75
66887;BME280;67239;51.680;5.976;2023-03-21T12:46:36;101089.72;;;15.92;65.63
66887;BME280;67239;51.680;5.976;2023-03-21T12:49:41;101084.94;;;15.98;65.45
66887;BME280;67239;51.680;5.976;2023-03-21T12:52:28;101087.16;;;16.08;65.38
66887;BME280;67239;51.680;5.976;2023-03-21T12:55:05;101083.97;;;16.19;64.79
66887;BME280;67239;51.680;5.976;2023-03-21T12:58:00;101088.97;;;16.25;64.27
66887;BME280;67239;51.680;5.976;2023-03-21T13:03:19;101076.38;;;16.11;62.36
66887;BME280;67239;51.680;5.976;2023-03-21T13:06:05;101087.09;;;16.09;60.68
66887;BME280;67239;51.680;5.976;2023-03-21T13:08:42;101084.03;;;15.99;61.39
66887;BME280;67239;51.680;5.976;2023-03-21T13:11:17;101078.00;;;15.96;62.14
66887;BME280;67239;51.680;5.976;2023-03-21T13:16:55;101070.50;;;16.04;60.68
66887;BME280;67239;51.680;5.976;2023-03-21T13:19:35;101064.94;;;16.09;61.01
66887;BME280;67239;51.680;5.976;2023-03-21T13:22:10;101068.09;;;16.17;60.82
66887;BME280;67239;51.680;5.976;2023-03-21T13:25:38;101066.63;;;16.29;60.17
66887;BME280;67239;51.680;5.976;2023-03-21T13:28:12;101068.66;;;16.41;60.09
66887;BME280;67239;51.680;5.976;2023-03-21T13:30:45;101062.31;;;16.44;59.91
66887;BME280;67239;51.680;5.976;2023-03-21T13:33:36;101052.47;;;16.46;59.00
66887;BME280;67239;51.680;5.976;2023-03-21T13:36:15;101063.34;;;16.41;59.26
66887;BME280;67239;51.680;5.976;2023-03-21T13:38:50;101055.84;;;16.32;59.05
66887;BME280;67239;51.680;5.976;2023-03-21T13:41:33;101058.00;;;16.24;58.75
66887;BME280;67239;51.680;5.976;2023-03-21T13:44:13;101052.69;;;16.24;57.62
66887;BME280;67239;51.680;5.976;2023-03-21T13:47:04;101044.00;;;16.20;57.88
66887;BME280;67239;51.680;5.976;2023-03-21T13:50:27;101031.25;;;16.27;56.81
66887;BME280;67239;51.680;5.976;2023-03-21T13:55:44;101032.25;;;16.42;57.26
66887;BME280;67239;51.680;5.976;2023-03-21T14:04:10;101025.06;;;17.11;56.38
66887;BME280;67239;51.680;5.976;2023-03-21T14:07:02;101027.50;;;17.32;56.21
66887;BME280;67239;51.680;5.976;2023-03-21T14:09:47;101019.25;;;17.36;56.07
66887;BME280;67239;51.680;5.976;2023-03-21T14:12:23;101015.56;;;17.39;55.98
66887;BME280;67239;51.680;5.976;2023-03-21T14:15:18;101006.44;;;17.59;54.27
66887;BME280;67239;51.680;5.976;2023-03-21T14:17:54;101014.53;;;17.58;53.76
66887;BME280;67239;51.680;5.976;2023-03-21T14:20:25;101009.63;;;17.50;53.40
66887;BME280;67239;51.680;5.976;2023-03-21T14:22:55;101004.97;;;17.53;53.78
66887;BME280;67239;51.680;5.976;2023-03-21T14:25:24;100996.72;;;17.42;54.12
66887;BME280;67239;51.680;5.976;2023-03-21T14:28:19;100982.03;;;17.35;54.28
66887;BME280;67239;51.680;5.976;2023-03-21T14:30:53;100983.66;;;17.37;53.64
66887;BME280;67239;51.680;5.976;2023-03-21T14:36:11;100984.06;;;17.46;55.57
66887;BME280;67239;51.680;5.976;2023-03-21T14:38:41;100989.75;;;17.39;55.51
66887;BME280;67239;51.680;5.976;2023-03-21T14:41:24;100994.00;;;17.44;55.47
66887;BME280;67239;51.680;5.976;2023-03-21T14:44:10;100989.25;;;17.49;55.65
66887;BME280;67239;51.680;5.976;2023-03-21T14:47:03;100985.53;;;17.35;55.19
66887;BME280;67239;51.680;5.976;2023-03-21T14:49:33;100986.44;;;17.20;55.35
66887;BME280;67239;51.680;5.976;2023-03-21T14:52:05;100987.50;;;17.00;55.92
66887;BME280;67239;51.680;5.976;2023-03-21T14:54:40;100986.88;;;16.79;56.55
66887;BME280;67239;51.680;5.976;2023-03-21T14:57:13;100972.34;;;16.68;57.11
66887;BME280;67239;51.680;5.976;2023-03-21T14:59:46;100970.16;;;16.59;57.54
66887;BME280;67239;51.680;5.976;2023-03-21T15:02:37;100970.16;;;16.59;57.97
66887;BME280;67239;51.680;5.976;2023-03-21T15:08:16;100967.25;;;16.64;58.17
66887;BME280;67239;51.680;5.976;2023-03-21T15:10:58;100968.53;;;16.56;58.07
66887;BME280;67239;51.680;5.976;2023-03-21T15:13:35;100964.56;;;16.48;58.03
66887;BME280;67239;51.680;5.976;2023-03-21T15:16:11;100967.94;;;16.34;58.19
66887;BME280;67239;51.680;5.976;2023-03-21T15:18:41;100969.53;;;16.20;58.30